createdAt,value
2023-05-15T00:00:52.631Z,10.98
2023-05-15T00:03:22.506Z,11.70
2023-05-15T00:05:57.881Z,9.83
2023-05-15T00:08:28.512Z,10.02
2023-05-15T00:11:01.592Z,9.05
2023-05-15T00:13:32.262Z,10.60
2023-05-15T00:16:01.241Z,10.52
2023-05-15T00:18:33.479Z,12.80
2023-05-15T00:21:04.256Z,8.88
2023-05-15T00:23:32.949Z,6.60
2023-05-15T00:26:01.581Z,9.25
2023-05-15T00:28:30.301Z,7.78
2023-05-15T00:30:59.066Z,7.50
2023-05-15T00:33:27.785Z,11.95
2023-05-15T00:35:56.835Z,11.60
2023-05-15T00:38:28.063Z,8.02
2023-05-15T00:40:57.961Z,9.35
2023-05-15T00:43:28.237Z,9.70
2023-05-15T00:46:04.735Z,6.68
2023-05-15T00:48:36.392Z,7.55
2023-05-15T00:51:05.315Z,6.78
2023-05-15T00:53:35.379Z,8.73
2023-05-15T00:56:07.317Z,8.83
2023-05-15T00:58:38.027Z,8.23
2023-05-15T01:01:09.662Z,9.10
2023-05-15T01:03:43.236Z,8.98
2023-05-15T01:06:14.509Z,9.82
2023-05-15T01:08:49.056Z,7.40
2023-05-15T01:11:19.309Z,7.70
2023-05-15T01:13:48.242Z,10.70
2023-05-15T01:16:16.933Z,13.50
2023-05-15T01:18:46.709Z,8.32
2023-05-15T01:21:54.204Z,8.43
2023-05-15T01:24:46.846Z,8.60
2023-05-15T01:27:23.563Z,9.57
2023-05-15T01:30:06.578Z,10.95
2023-05-15T01:32:59.340Z,9.60
2023-05-15T01:35:42.387Z,8.77
2023-05-15T01:38:23.271Z,9.38
2023-05-15T01:41:03.283Z,8.85
2023-05-15T01:43:37.273Z,8.52
2023-05-15T01:46:11.201Z,10.95
2023-05-15T01:48:45.046Z,6.63
2023-05-15T01:51:17.204Z,13.18
2023-05-15T01:53:50.431Z,7.75
2023-05-15T01:56:25.662Z,9.27
2023-05-15T01:59:00.229Z,10.35
2023-05-15T02:01:34.087Z,8.90
2023-05-15T02:04:05.439Z,11.30
2023-05-15T02:06:35.549Z,10.63
2023-05-15T02:09:06.595Z,9.30
2023-05-15T02:11:36.623Z,6.25
2023-05-15T02:14:10.154Z,10.37
2023-05-15T02:16:39.013Z,10.30
2023-05-15T02:19:10.409Z,8.80
2023-05-15T02:21:39.214Z,8.13
2023-05-15T02:24:08.685Z,6.82
2023-05-15T02:26:55.316Z,6.93
2023-05-15T02:29:40.246Z,6.68
2023-05-15T02:32:22.360Z,5.82
2023-05-15T02:35:02.988Z,8.65
2023-05-15T02:37:36.972Z,8.30
2023-05-15T02:40:11.645Z,5.50
2023-05-15T02:42:43.717Z,6.38
2023-05-15T02:45:16.106Z,4.30
2023-05-15T02:47:45.614Z,5.70
2023-05-15T02:50:17.253Z,5.00
2023-05-15T02:52:46.792Z,5.43
2023-05-15T02:55:17.786Z,5.25
2023-05-15T02:57:47.120Z,3.78
2023-05-15T03:00:18.370Z,4.80
2023-05-15T03:02:47.122Z,6.53
2023-05-15T03:05:15.805Z,4.90
2023-05-15T03:07:45.492Z,6.15
2023-05-15T03:10:15.928Z,6.47
2023-05-15T03:12:45.107Z,5.93
2023-05-15T03:15:14.043Z,7.72
2023-05-15T03:17:44.835Z,9.57
2023-05-15T03:20:15.261Z,6.15
2023-05-15T03:22:47.510Z,8.20
2023-05-15T03:25:19.468Z,6.60
2023-05-15T03:27:51.397Z,7.75
2023-05-15T03:30:22.107Z,6.67
2023-05-15T03:32:53.655Z,7.25
2023-05-15T03:35:26.310Z,8.20
2023-05-15T03:37:55.420Z,5.68
2023-05-15T03:40:27.945Z,6.43
2023-05-15T03:42:56.595Z,11.77
2023-05-15T03:45:25.673Z,14.07
2023-05-15T03:47:56.218Z,6.43
2023-05-15T03:50:25.345Z,7.95
2023-05-15T03:52:54.584Z,7.53
2023-05-15T03:55:23.579Z,4.43
2023-05-15T03:57:52.492Z,7.80
2023-05-15T04:00:22.225Z,6.25
2023-05-15T04:03:03.157Z,7.97
2023-05-15T04:05:34.179Z,5.72
2023-05-15T04:08:12.627Z,8.33
2023-05-15T04:10:52.149Z,8.73
2023-05-15T04:13:24.464Z,7.30
2023-05-15T04:15:55.471Z,11.35
2023-05-15T04:18:28.432Z,7.63
2023-05-15T04:21:01.943Z,9.33
2023-05-15T04:23:35.028Z,7.70
2023-05-15T04:26:10.777Z,11.50
2023-05-15T04:28:52.425Z,6.18
2023-05-15T04:31:36.107Z,6.95
2023-05-15T04:34:08.621Z,4.30
2023-05-15T04:36:40.576Z,6.13
2023-05-15T04:39:16.822Z,5.65
2023-05-15T04:41:49.399Z,5.28
2023-05-15T04:44:19.465Z,5.30
2023-05-15T04:46:52.971Z,4.33
2023-05-15T04:49:27.628Z,4.32
2023-05-15T04:51:58.932Z,7.13
2023-05-15T04:54:30.372Z,5.65
2023-05-15T04:57:02.671Z,7.65
2023-05-15T04:59:39.491Z,6.07
2023-05-15T05:02:14.551Z,6.63
2023-05-15T05:04:45.830Z,8.70
2023-05-15T05:07:14.583Z,6.28
2023-05-15T05:09:43.646Z,7.18
2023-05-15T05:12:12.469Z,5.37
2023-05-15T05:14:42.300Z,3.63
2023-05-15T05:17:11.548Z,5.43
2023-05-15T05:19:40.315Z,4.38
2023-05-15T05:22:10.560Z,3.25
2023-05-15T05:24:39.290Z,4.40
2023-05-15T05:27:08.152Z,6.28
2023-05-15T05:29:37.036Z,5.25
2023-05-15T05:32:07.666Z,4.55
2023-05-15T05:34:36.694Z,2.72
2023-05-15T05:37:06.452Z,6.20
2023-05-15T05:39:36.964Z,6.60
2023-05-15T05:42:06.656Z,3.45
2023-05-15T05:44:35.452Z,5.53
2023-05-15T05:47:04.298Z,4.00
2023-05-15T05:49:33.022Z,6.30
2023-05-15T05:52:08.582Z,8.90
2023-05-15T05:54:38.688Z,6.63
2023-05-15T05:57:07.790Z,8.90
2023-05-15T05:59:37.400Z,7.65
2023-05-15T06:02:06.597Z,10.60
2023-05-15T06:04:35.573Z,7.82
2023-05-15T06:07:04.718Z,8.75
2023-05-15T06:09:33.447Z,8.85
2023-05-15T06:12:04.934Z,11.45
2023-05-15T06:14:33.788Z,8.70
2023-05-15T06:17:03.146Z,10.23
2023-05-15T06:19:31.896Z,8.82
2023-05-15T06:22:00.594Z,5.35
2023-05-15T06:24:29.383Z,6.15
2023-05-15T06:26:58.378Z,7.77
2023-05-15T06:29:28.793Z,6.75
2023-05-15T06:31:57.752Z,6.95
2023-05-15T06:34:26.486Z,6.32
2023-05-15T06:36:55.119Z,7.13
2023-05-15T06:39:23.986Z,6.87
2023-05-15T06:41:58.012Z,7.68
2023-05-15T06:44:28.175Z,6.45
2023-05-15T06:46:56.913Z,5.53
2023-05-15T06:49:26.324Z,6.55
2023-05-15T06:51:55.774Z,4.73
2023-05-15T06:54:24.580Z,6.35
2023-05-15T06:56:53.268Z,5.43
2023-05-15T06:59:21.967Z,7.35
2023-05-15T07:01:52.061Z,6.85
2023-05-15T07:04:21.139Z,8.00
2023-05-15T07:06:49.784Z,9.38
2023-05-15T07:09:18.514Z,8.10
2023-05-15T07:11:47.256Z,8.43
2023-05-15T07:14:16.011Z,7.68
2023-05-15T07:16:45.363Z,6.83
2023-05-15T07:19:19.551Z,4.40
2023-05-15T07:21:48.446Z,6.75
2023-05-15T07:24:17.106Z,4.22
2023-05-15T07:26:57.542Z,5.85
2023-05-15T07:29:27.952Z,4.40
2023-05-15T07:31:56.822Z,4.80
2023-05-15T07:34:26.995Z,5.75
2023-05-15T07:36:55.666Z,4.82
2023-05-15T07:39:24.424Z,4.55
2023-05-15T07:41:53.115Z,3.50
2023-05-15T07:44:21.720Z,3.83
2023-05-15T07:46:50.362Z,2.80
2023-05-15T07:49:19.070Z,2.13
2023-05-15T07:51:49.414Z,3.85
2023-05-15T07:54:18.145Z,2.37
2023-05-15T07:56:46.856Z,4.10
2023-05-15T07:59:15.650Z,1.83
2023-05-15T08:01:44.434Z,1.85
2023-05-15T08:04:13.825Z,2.78
2023-05-15T08:06:44.352Z,2.03
2023-05-15T08:09:14.791Z,2.20
2023-05-15T08:11:43.415Z,1.77
2023-05-15T08:14:13.813Z,1.65
2023-05-15T08:16:42.844Z,1.10
2023-05-15T08:19:11.696Z,1.43
2023-05-15T08:21:40.966Z,0.70
2023-05-15T08:24:09.936Z,2.20
2023-05-15T08:26:40.030Z,3.25
2023-05-15T08:29:08.681Z,1.90
2023-05-15T08:31:37.423Z,1.73
2023-05-15T08:34:06.157Z,1.65
2023-05-15T08:36:35.927Z,2.28
2023-05-15T08:39:06.290Z,2.42
2023-05-15T08:41:43.497Z,2.60
2023-05-15T08:44:14.388Z,1.97
2023-05-15T08:46:43.467Z,1.02
2023-05-15T08:49:23.117Z,4.75
2023-05-15T08:51:52.217Z,2.10
2023-05-15T08:54:21.227Z,2.05
2023-05-15T08:56:51.652Z,1.20
2023-05-15T08:59:20.652Z,2.70
2023-05-15T09:01:49.922Z,2.30
2023-05-15T09:04:18.669Z,1.77
2023-05-15T09:06:49.388Z,2.63
2023-05-15T09:09:19.765Z,3.17
2023-05-15T09:11:52.220Z,3.30
2023-05-15T09:14:21.240Z,1.75
2023-05-15T09:16:53.578Z,3.13
2023-05-15T09:19:22.725Z,2.45
2023-05-15T09:21:51.714Z,3.97
2023-05-15T09:24:24.542Z,2.55
2023-05-15T09:27:06.380Z,1.92
2023-05-15T09:29:37.180Z,3.25
2023-05-15T09:32:09.164Z,3.47
2023-05-15T09:34:40.043Z,3.00
2023-05-15T09:37:11.010Z,1.50
2023-05-15T09:39:43.988Z,3.17
2023-05-15T09:42:16.099Z,4.53
2023-05-15T09:44:46.784Z,4.20
2023-05-15T09:47:17.617Z,3.63
2023-05-15T09:49:47.486Z,3.22
2023-05-15T09:52:18.425Z,3.00
2023-05-15T09:54:50.324Z,2.10
2023-05-15T09:57:24.368Z,2.22
2023-05-15T09:59:53.460Z,1.50
2023-05-15T10:02:28.232Z,1.77
2023-05-15T10:04:57.971Z,2.40
2023-05-15T10:07:31.341Z,1.90
2023-05-15T10:10:01.256Z,2.55
2023-05-15T10:12:36.847Z,1.70
2023-05-15T10:15:07.690Z,2.60
2023-05-15T10:17:37.733Z,2.42
2023-05-15T10:20:11.932Z,3.42
2023-05-15T10:22:46.486Z,3.70
2023-05-15T10:25:24.798Z,3.73
2023-05-15T10:27:56.519Z,2.03
2023-05-15T10:30:26.577Z,3.55
2023-05-15T10:32:57.131Z,3.72
2023-05-15T10:35:29.196Z,2.88
2023-05-15T10:37:59.408Z,4.53
2023-05-15T10:40:31.915Z,5.10
2023-05-15T10:43:02.992Z,2.53
2023-05-15T10:45:32.780Z,3.25
2023-05-15T10:48:03.417Z,3.60
2023-05-15T10:50:32.362Z,3.17
2023-05-15T10:53:02.067Z,2.03
2023-05-15T10:55:32.972Z,2.80
2023-05-15T10:58:03.330Z,1.63
2023-05-15T11:00:32.452Z,1.92
2023-05-15T11:03:02.365Z,2.47
2023-05-15T11:05:51.706Z,3.45
2023-05-15T11:08:27.541Z,1.40
2023-05-15T11:10:56.388Z,3.08
2023-05-15T11:13:26.708Z,2.92
2023-05-15T11:15:57.319Z,3.33
2023-05-15T11:18:27.591Z,2.15
2023-05-15T11:21:09.833Z,3.50
2023-05-15T11:23:43.038Z,2.90
2023-05-15T11:26:14.581Z,4.70
2023-05-15T11:28:47.208Z,1.83
2023-05-15T11:31:16.140Z,5.28
2023-05-15T11:33:44.939Z,4.38
2023-05-15T11:36:16.025Z,1.75
2023-05-15T11:38:45.482Z,2.85
2023-05-15T11:41:27.633Z,3.23
2023-05-15T11:44:02.371Z,3.78
2023-05-15T11:46:33.567Z,4.70
2023-05-15T11:49:02.621Z,2.72
2023-05-15T11:51:33.507Z,3.42
2023-05-15T11:54:05.695Z,3.20
2023-05-15T11:56:35.134Z,4.75
2023-05-15T11:59:05.574Z,4.30
2023-05-15T12:01:42.437Z,1.63
2023-05-15T12:04:16.505Z,1.23
2023-05-15T12:06:48.540Z,1.53
2023-05-15T12:09:19.484Z,2.00
2023-05-15T12:11:53.542Z,2.35
2023-05-15T12:14:29.896Z,5.43
2023-05-15T12:17:03.087Z,1.90
2023-05-15T12:19:33.468Z,2.90
2023-05-15T12:22:04.417Z,1.45
2023-05-15T12:24:33.204Z,2.05
2023-05-15T12:27:02.254Z,4.40
2023-05-15T12:29:33.258Z,1.60
2023-05-15T12:32:02.396Z,4.63
2023-05-15T12:34:31.413Z,1.58
2023-05-15T12:37:00.930Z,1.90
2023-05-15T12:39:29.944Z,2.40
2023-05-15T12:41:59.893Z,2.55
2023-05-15T12:44:29.446Z,3.07
2023-05-15T12:46:59.840Z,2.88
2023-05-15T12:49:29.684Z,2.25
2023-05-15T12:51:59.020Z,4.47
2023-05-15T12:54:29.141Z,4.40
2023-05-15T12:56:58.310Z,3.27
2023-05-15T12:59:28.129Z,4.50
2023-05-15T13:01:58.383Z,2.03
2023-05-15T13:04:27.514Z,7.97
2023-05-15T13:06:56.440Z,3.78
2023-05-15T13:09:26.484Z,3.83
2023-05-15T13:11:57.067Z,3.47
2023-05-15T13:14:29.058Z,2.17
2023-05-15T13:17:02.855Z,1.90
2023-05-15T13:19:31.666Z,2.60
2023-05-15T13:22:01.797Z,1.93
2023-05-15T13:24:31.415Z,1.80
2023-05-15T13:27:00.224Z,1.88
2023-05-15T13:29:28.860Z,4.50
2023-05-15T13:31:58.978Z,1.88
2023-05-15T13:34:27.648Z,4.03
2023-05-15T13:36:57.903Z,2.33
2023-05-15T13:39:26.624Z,2.33
2023-05-15T13:41:55.758Z,3.53
2023-05-15T13:44:24.453Z,3.25
2023-05-15T13:46:53.197Z,3.07
2023-05-15T13:49:23.307Z,2.88
2023-05-15T13:51:52.030Z,2.78
2023-05-15T13:54:20.728Z,1.48
2023-05-15T13:56:49.389Z,2.97
2023-05-15T13:59:19.647Z,2.00
2023-05-15T14:01:49.032Z,9.70
2023-05-15T14:04:17.719Z,6.72
2023-05-15T14:06:48.076Z,3.25
2023-05-15T14:09:17.480Z,2.72
2023-05-15T14:11:46.138Z,1.77
2023-05-15T14:14:14.764Z,2.38
2023-05-15T14:16:43.645Z,2.85
2023-05-15T14:19:12.405Z,2.78
2023-05-15T14:21:41.379Z,4.10
2023-05-15T14:24:11.659Z,2.37
2023-05-15T14:26:40.399Z,2.05
2023-05-15T14:29:09.352Z,3.17
2023-05-15T14:31:39.664Z,5.40
2023-05-15T14:34:08.523Z,2.95
2023-05-15T14:36:37.358Z,3.90
2023-05-15T14:39:06.325Z,5.00
2023-05-15T14:41:36.937Z,3.13
2023-05-15T14:44:05.969Z,2.42
2023-05-15T14:46:36.575Z,2.63
2023-05-15T14:49:05.925Z,5.93
2023-05-15T14:51:34.609Z,2.45
2023-05-15T14:54:05.029Z,3.58
2023-05-15T14:56:35.580Z,2.60
2023-05-15T14:59:04.374Z,3.95
2023-05-15T15:01:33.346Z,2.87
2023-05-15T15:04:02.166Z,5.57
2023-05-15T15:06:31.861Z,1.98
2023-05-15T15:09:00.532Z,3.65
2023-05-15T15:11:29.185Z,2.38
2023-05-15T15:13:59.214Z,4.13
2023-05-15T15:16:28.345Z,6.72
2023-05-15T15:18:59.002Z,3.35
2023-05-15T15:21:27.817Z,7.18
2023-05-15T15:23:56.448Z,5.28
2023-05-15T15:26:25.129Z,5.93
2023-05-15T15:28:55.296Z,4.43
2023-05-15T15:31:27.371Z,5.82
2023-05-15T15:33:57.758Z,5.07
2023-05-15T15:36:26.898Z,5.65
2023-05-15T15:38:55.606Z,3.73
2023-05-15T15:41:24.568Z,7.03
2023-05-15T15:43:55.661Z,4.95
2023-05-15T15:46:25.891Z,8.93
2023-05-15T15:48:54.669Z,4.47
2023-05-15T15:51:23.426Z,8.73
2023-05-15T15:53:52.131Z,5.43
2023-05-15T15:56:21.340Z,6.15
2023-05-15T15:58:50.104Z,9.55
2023-05-15T16:01:18.823Z,5.03
2023-05-15T16:03:48.868Z,5.00
2023-05-15T16:06:18.549Z,5.43
2023-05-15T16:08:47.315Z,6.78
2023-05-15T16:11:17.058Z,11.18
2023-05-15T16:13:45.782Z,4.28
2023-05-15T16:16:14.624Z,4.63
2023-05-15T16:18:44.833Z,4.32
2023-05-15T16:21:15.964Z,5.80
2023-05-15T16:23:45.509Z,5.03
2023-05-15T16:26:14.494Z,4.10
2023-05-15T16:28:43.184Z,5.13
2023-05-15T16:31:12.039Z,5.13
2023-05-15T16:33:40.918Z,10.55
2023-05-15T16:36:10.243Z,4.55
2023-05-15T16:38:40.315Z,4.15
2023-05-15T16:41:09.228Z,6.63
2023-05-15T16:43:38.818Z,4.93
2023-05-15T16:46:08.113Z,6.60
2023-05-15T16:48:38.059Z,8.27
2023-05-15T16:51:07.229Z,6.25
2023-05-15T16:53:35.984Z,5.00
2023-05-15T16:56:06.929Z,4.43
2023-05-15T16:58:36.765Z,5.25
2023-05-15T17:01:05.517Z,4.18
2023-05-15T17:03:34.516Z,7.95
2023-05-15T17:06:03.522Z,8.07
2023-05-15T17:08:38.859Z,5.03
2023-05-15T17:11:12.009Z,6.65
2023-05-15T17:13:41.000Z,6.13
2023-05-15T17:16:09.912Z,7.82
2023-05-15T17:18:40.234Z,8.17
2023-05-15T17:21:09.052Z,5.63
2023-05-15T17:23:37.864Z,5.20
2023-05-15T17:26:06.697Z,8.02
2023-05-15T17:28:40.401Z,7.03
2023-05-15T17:31:12.739Z,9.83
2023-05-15T17:33:41.588Z,7.80
2023-05-15T17:36:10.910Z,11.05
2023-05-15T17:38:39.954Z,7.85
2023-05-15T17:41:08.968Z,6.47
2023-05-15T17:43:51.711Z,9.37
2023-05-15T17:46:20.541Z,11.07
2023-05-15T17:48:49.353Z,6.22
2023-05-15T17:51:18.054Z,8.23
2023-05-15T17:53:52.923Z,9.65
2023-05-15T17:56:24.122Z,8.37
2023-05-15T17:58:54.593Z,6.38
2023-05-15T18:01:23.345Z,14.70
2023-05-15T18:03:52.164Z,10.55
2023-05-15T18:06:21.119Z,8.50
2023-05-15T18:08:51.603Z,8.67
2023-05-15T18:11:23.514Z,11.25
2023-05-15T18:13:54.250Z,9.35
2023-05-15T18:16:23.850Z,10.40
2023-05-15T18:18:53.520Z,8.75
2023-05-15T18:21:23.137Z,8.67
2023-05-15T18:23:52.667Z,12.07
2023-05-15T18:26:22.071Z,11.15
2023-05-15T18:28:50.940Z,9.25
2023-05-15T18:31:21.336Z,7.63
2023-05-15T18:33:53.189Z,9.03
2023-05-15T18:36:22.877Z,7.75
2023-05-15T18:38:52.004Z,9.30
2023-05-15T18:41:23.407Z,10.02
2023-05-15T18:43:52.907Z,8.30
2023-05-15T18:46:25.868Z,9.30
2023-05-15T18:48:54.841Z,13.05
2023-05-15T18:51:24.979Z,9.25
2023-05-15T18:53:53.679Z,12.90
2023-05-15T18:56:25.136Z,8.38
2023-05-15T18:58:55.259Z,10.17
2023-05-15T19:01:26.047Z,8.93
2023-05-15T19:03:55.116Z,12.02
2023-05-15T19:06:26.764Z,15.07
2023-05-15T19:08:58.767Z,12.82
2023-05-15T19:11:28.736Z,10.27
2023-05-15T19:13:57.646Z,10.68
2023-05-15T19:16:28.992Z,12.75
2023-05-15T19:19:00.694Z,13.65
2023-05-15T19:21:30.062Z,11.57
2023-05-15T19:23:59.292Z,13.13
2023-05-15T19:26:28.711Z,12.02
2023-05-15T19:28:58.342Z,16.83
2023-05-15T19:31:31.857Z,9.77
2023-05-15T19:34:02.968Z,11.35
2023-05-15T19:36:32.639Z,11.07
2023-05-15T19:39:03.597Z,12.88
2023-05-15T19:41:33.134Z,12.35
2023-05-15T19:44:03.003Z,8.13
2023-05-15T19:46:34.111Z,5.85
2023-05-15T19:49:04.868Z,10.20
2023-05-15T19:51:35.140Z,7.35
2023-05-15T19:54:03.998Z,10.05
2023-05-15T19:56:32.998Z,7.35
2023-05-15T19:59:02.702Z,12.40
2023-05-15T20:01:31.594Z,10.13
2023-05-15T20:04:01.991Z,9.10
2023-05-15T20:06:30.992Z,14.52
2023-05-15T20:09:03.439Z,8.65
2023-05-15T20:11:33.182Z,10.43
2023-05-15T20:14:01.998Z,4.93
2023-05-15T20:16:31.809Z,13.50
2023-05-15T20:19:02.436Z,6.88
2023-05-15T20:21:56.852Z,7.05
2023-05-15T20:24:26.451Z,6.78
2023-05-15T20:26:55.185Z,5.83
2023-05-15T20:29:25.734Z,6.65
2023-05-15T20:31:54.664Z,7.05
2023-05-15T20:34:25.040Z,5.28
2023-05-15T20:36:54.532Z,6.55
2023-05-15T20:39:23.396Z,8.17
2023-05-15T20:41:52.942Z,6.47
2023-05-15T20:44:21.643Z,6.57
2023-05-15T20:46:50.643Z,4.90
2023-05-15T20:49:19.331Z,6.53
2023-05-15T20:51:50.164Z,7.03
2023-05-15T20:54:18.977Z,6.00
2023-05-15T20:56:47.759Z,5.80
2023-05-15T20:59:16.641Z,4.93
2023-05-15T21:01:45.504Z,5.25
2023-05-15T21:04:14.294Z,3.37
2023-05-15T21:06:43.042Z,6.15
2023-05-15T21:09:15.603Z,4.57
2023-05-15T21:11:45.688Z,6.18
2023-05-15T21:14:14.696Z,6.63
2023-05-15T21:16:43.508Z,5.77
2023-05-15T21:19:12.365Z,12.82
2023-05-15T21:21:41.051Z,5.95
2023-05-15T21:24:58.721Z,8.35
2023-05-15T21:27:29.205Z,8.90
2023-05-15T21:29:58.808Z,6.47
2023-05-15T21:32:27.816Z,6.68
2023-05-15T21:34:56.503Z,6.28
2023-05-15T21:37:25.251Z,7.25
2023-05-15T21:39:53.931Z,5.82
2023-05-15T21:42:23.286Z,3.93
2023-05-15T21:44:53.266Z,5.40
2023-05-15T21:47:21.971Z,4.70
2023-05-15T21:49:51.077Z,4.72
2023-05-15T21:52:19.779Z,5.78
2023-05-15T21:54:48.494Z,6.23
2023-05-15T21:57:17.184Z,6.45
2023-05-15T21:59:46.155Z,4.78
2023-05-15T22:02:16.311Z,4.43
2023-05-15T22:04:45.043Z,8.40
2023-05-15T22:07:14.907Z,3.43
2023-05-15T22:09:45.142Z,5.40
2023-05-15T22:12:13.816Z,5.22
2023-05-15T22:14:54.726Z,4.25
2023-05-15T22:17:30.529Z,4.43
2023-05-15T22:20:07.375Z,4.17
2023-05-15T22:22:37.652Z,5.57
2023-05-15T22:25:07.915Z,6.75
2023-05-15T22:27:36.802Z,5.47
2023-05-15T22:30:12.878Z,5.13
2023-05-15T22:32:43.508Z,4.90
2023-05-15T22:35:13.427Z,4.75
2023-05-15T22:37:42.469Z,3.88
2023-05-15T22:40:15.994Z,8.48
2023-05-15T22:42:50.440Z,6.43
2023-05-15T22:45:19.842Z,3.93
2023-05-15T22:47:51.790Z,4.65
2023-05-15T22:50:20.717Z,3.30
2023-05-15T22:52:49.503Z,4.65
2023-05-15T22:55:18.443Z,3.65
2023-05-15T22:57:47.183Z,3.47
2023-05-15T23:01:04.211Z,5.70
2023-05-15T23:03:34.791Z,5.38
2023-05-15T23:06:34.655Z,3.83
2023-05-15T23:09:04.728Z,4.88
2023-05-15T23:11:33.796Z,4.00
2023-05-15T23:14:03.206Z,3.05
2023-05-15T23:16:32.727Z,2.03
2023-05-15T23:19:03.460Z,4.93
2023-05-15T23:21:32.697Z,4.88
2023-05-15T23:24:01.763Z,3.30
2023-05-15T23:26:30.789Z,2.63
2023-05-15T23:28:59.756Z,3.88
2023-05-15T23:31:29.183Z,6.72
2023-05-15T23:33:58.065Z,3.63
2023-05-15T23:36:28.529Z,3.73
2023-05-15T23:38:57.557Z,2.38
2023-05-15T23:41:27.309Z,2.53
2023-05-15T23:43:56.290Z,4.03
2023-05-15T23:46:25.285Z,3.15
2023-05-15T23:48:54.376Z,4.20
2023-05-15T23:51:23.412Z,3.53
2023-05-15T23:53:53.760Z,2.83
2023-05-15T23:56:23.890Z,3.33
2023-05-15T23:58:52.841Z,2.95
